Time;durP1;ratioP1;P1;durP2;ratioP2;P2;SDS_P1;SDS_P2;PMS_P1;PMS_P2;Temp;Humidity;BMP_temperature;BMP_pressure;BME280_temperature;BME280_humidity;BME280_pressure;Samples;Min_cycle;Max_cycle;Signal;HPM_P1;HPM_P2
2024/03/11 00:01:51;;;;;;;10.48;1.60;;;;;;;;;;5069636;28;20036;-59
2024/03/11 00:04:17;;;;;;;6.25;1.30;;;;;;;;;;5070142;28;20028;-59
2024/03/11 00:06:44;;;;;;;5.90;1.33;;;;;;;;;;5069073;28;20036;-58
2024/03/11 00:09:19;;;;;;;2.50;1.40;;;;;;;;;;5068961;28;20036;-60
2024/03/11 00:11:55;;;;;;;3.10;1.38;;;;;;;;;;5070451;28;20110;-60
2024/03/11 00:14:25;;;;;;;2.80;1.33;;;;;;;;;;5069305;28;20043;-57
2024/03/11 00:16:54;;;;;;;4.97;1.35;;;;;;;;;;5069409;28;20040;-56
2024/03/11 00:19:19;;;;;;;2.85;1.48;;;;;;;;;;5070275;28;20051;-58
2024/03/11 00:21:44;;;;;;;2.83;1.33;;;;;;;;;;5069772;28;20028;-60
2024/03/11 00:24:10;;;;;;;3.65;1.40;;;;;;;;;;5069710;28;20040;-59
2024/03/11 00:26:35;;;;;;;5.45;1.48;;;;;;;;;;5070190;28;20049;-61
2024/03/11 00:29:04;;;;;;;2.15;1.00;;;;;;;;;;5069591;28;20387;-59
2024/03/11 00:31:32;;;;;;;3.72;1.73;;;;;;;;;;5061819;28;20055;-60
2024/03/11 00:33:58;;;;;;;2.85;1.30;;;;;;;;;;5069599;28;20044;-56
2024/03/11 00:36:24;;;;;;;3.22;1.50;;;;;;;;;;5069274;28;20038;-60
2024/03/11 00:38:49;;;;;;;3.85;1.27;;;;;;;;;;5069898;28;20044;-57
2024/03/11 00:41:14;;;;;;;3.35;1.38;;;;;;;;;;5069808;28;20114;-59
2024/03/11 00:43:42;;;;;;;4.15;1.33;;;;;;;;;;5069513;28;20052;-59
2024/03/11 00:46:09;;;;;;;4.07;1.30;;;;;;;;;;5069539;28;20193;-50
2024/03/11 00:48:36;;;;;;;2.67;1.15;;;;;;;;;;5069785;28;20037;-53
2024/03/11 00:51:02;;;;;;;2.88;1.20;;;;;;;;;;5070201;28;20021;-53
2024/03/11 00:53:28;;;;;;;2.83;1.42;;;;;;;;;;5069372;28;20511;-52
2024/03/11 00:55:53;;;;;;;3.33;1.88;;;;;;;;;;5069705;28;20062;-52
2024/03/11 00:58:19;;;;;;;3.80;1.70;;;;;;;;;;5070126;28;20032;-48
2024/03/11 01:00:44;;;;;;;3.22;1.50;;;;;;;;;;5069046;28;20391;-49
2024/03/11 01:03:09;;;;;;;2.97;1.40;;;;;;;;;;5069544;28;20044;-52
2024/03/11 01:05:36;;;;;;;4.20;1.40;;;;;;;;;;5070088;28;20028;-49
2024/03/11 01:08:01;;;;;;;3.10;1.40;;;;;;;;;;5069711;28;20093;-51
2024/03/11 01:10:27;;;;;;;2.25;1.23;;;;;;;;;;5069076;28;20040;-53
2024/03/11 01:12:52;;;;;;;2.88;1.60;;;;;;;;;;5069312;28;20036;-50
2024/03/11 01:15:17;;;;;;;5.68;1.48;;;;;;;;;;5069109;28;20043;-53
2024/03/11 01:17:44;;;;;;;3.47;1.88;;;;;;;;;;5068773;28;20044;-49
2024/03/11 01:20:13;;;;;;;3.45;1.55;;;;;;;;;;5069364;28;20396;-50
2024/03/11 01:22:39;;;;;;;3.45;1.65;;;;;;;;;;5069410;28;20436;-53
2024/03/11 01:25:05;;;;;;;2.85;1.60;;;;;;;;;;5069188;28;20357;-49
2024/03/11 01:27:32;;;;;;;2.97;1.60;;;;;;;;;;5071876;28;20039;-52
2024/03/11 01:29:58;;;;;;;3.03;1.50;;;;;;;;;;5072716;28;20111;-52
2024/03/11 01:32:23;;;;;;;3.45;1.55;;;;;;;;;;5072516;28;20174;-54
2024/03/11 01:34:49;;;;;;;3.28;1.65;;;;;;;;;;5072808;28;20059;-52
2024/03/11 01:37:15;;;;;;;2.90;1.38;;;;;;;;;;5072884;28;20037;-50
2024/03/11 01:39:43;;;;;;;3.05;1.52;;;;;;;;;;5072349;28;20040;-53
2024/03/11 01:42:11;;;;;;;2.53;1.30;;;;;;;;;;5072971;28;20033;-50
2024/03/11 01:44:38;;;;;;;2.65;1.50;;;;;;;;;;5072539;28;20040;-52
2024/03/11 01:47:04;;;;;;;3.25;1.52;;;;;;;;;;5072983;28;20256;-49
2024/03/11 01:49:31;;;;;;;2.55;1.40;;;;;;;;;;5072283;28;20045;-50
2024/03/11 01:51:57;;;;;;;2.35;1.38;;;;;;;;;;5072827;28;20059;-52
2024/03/11 01:54:22;;;;;;;2.80;1.42;;;;;;;;;;5071889;28;20480;-49
2024/03/11 01:56:49;;;;;;;3.20;1.50;;;;;;;;;;5072487;28;20078;-53
2024/03/11 01:59:14;;;;;;;3.05;1.58;;;;;;;;;;5072384;28;20044;-51
2024/03/11 02:01:41;;;;;;;3.17;1.42;;;;;;;;;;5072328;28;20037;-51
2024/03/11 02:04:06;;;;;;;2.72;1.60;;;;;;;;;;5070647;28;20037;-51
2024/03/11 02:06:32;;;;;;;2.35;1.40;;;;;;;;;;5072184;28;20490;-49
2024/03/11 02:08:57;;;;;;;3.95;1.38;;;;;;;;;;5071817;28;20044;-54
2024/03/11 02:11:24;;;;;;;3.15;1.60;;;;;;;;;;5072048;28;20117;-53
2024/03/11 02:13:53;;;;;;;2.75;1.45;;;;;;;;;;5069779;28;20593;-54
2024/03/11 02:16:18;;;;;;;3.15;1.67;;;;;;;;;;5072202;28;20040;-52
2024/03/11 02:18:44;;;;;;;3.08;1.58;;;;;;;;;;5053806;28;20052;-51
2024/03/11 02:21:09;;;;;;;3.22;1.80;;;;;;;;;;5072070;28;20124;-50
2024/03/11 02:23:34;;;;;;;2.72;1.50;;;;;;;;;;5072246;28;20040;-53
2024/03/11 02:26:00;;;;;;;3.05;1.38;;;;;;;;;;5071966;28;20063;-50
2024/03/11 02:28:25;;;;;;;3.72;1.50;;;;;;;;;;5071586;28;20384;-54
2024/03/11 02:30:51;;;;;;;2.13;1.40;;;;;;;;;;5071704;28;20070;-52
2024/03/11 02:33:17;;;;;;;2.40;1.30;;;;;;;;;;5071642;28;20536;-54
2024/03/11 02:35:42;;;;;;;3.72;1.60;;;;;;;;;;5071537;28;20063;-55
2024/03/11 02:38:07;;;;;;;2.78;1.50;;;;;;;;;;5071268;28;20514;-50
2024/03/11 02:40:37;;;;;;;2.25;1.30;;;;;;;;;;5071725;28;20044;-54
2024/03/11 02:43:06;;;;;;;3.17;1.60;;;;;;;;;;5071631;28;20064;-49
2024/03/11 02:45:32;;;;;;;2.88;1.50;;;;;;;;;;5071290;28;20033;-53
2024/03/11 02:47:57;;;;;;;3.65;1.77;;;;;;;;;;5071450;28;20107;-51
2024/03/11 02:50:23;;;;;;;3.05;1.42;;;;;;;;;;5071057;28;20510;-50
2024/03/11 02:52:48;;;;;;;3.00;1.60;;;;;;;;;;5070968;28;20051;-53
2024/03/11 02:55:14;;;;;;;2.70;1.60;;;;;;;;;;5071169;28;20040;-50
2024/03/11 02:57:43;;;;;;;2.70;1.63;;;;;;;;;;5071188;28;20028;-51
2024/03/11 03:00:10;;;;;;;2.88;1.52;;;;;;;;;;5070575;28;20041;-53
2024/03/11 03:02:38;;;;;;;2.40;1.50;;;;;;;;;;5070978;28;20041;-50
2024/03/11 03:05:04;;;;;;;3.63;1.83;;;;;;;;;;5070735;28;20111;-50
2024/03/11 03:07:29;;;;;;;2.88;1.73;;;;;;;;;;5070621;28;20140;-52
2024/03/11 03:09:54;;;;;;;2.72;1.55;;;;;;;;;;5070779;28;20036;-53
2024/03/11 03:12:20;;;;;;;2.97;1.67;;;;;;;;;;5071283;28;20033;-50
2024/03/11 03:14:45;;;;;;;2.80;1.55;;;;;;;;;;5070542;28;20043;-51
2024/03/11 03:17:10;;;;;;;2.60;1.45;;;;;;;;;;5071035;28;20589;-53
2024/03/11 03:19:36;;;;;;;2.95;1.55;;;;;;;;;;5070664;28;20106;-52
2024/03/11 03:22:01;;;;;;;3.53;1.88;;;;;;;;;;5070435;28;20043;-51
2024/03/11 03:24:27;;;;;;;2.72;1.60;;;;;;;;;;5070956;28;20067;-51
2024/03/11 03:26:52;;;;;;;3.05;1.60;;;;;;;;;;5070840;28;20037;-51
2024/03/11 03:29:18;;;;;;;2.70;1.80;;;;;;;;;;5070189;28;20045;-55
2024/03/11 03:31:44;;;;;;;3.65;2.00;;;;;;;;;;5070827;28;20118;-51
2024/03/11 03:34:09;;;;;;;3.97;2.08;;;;;;;;;;5070364;28;20500;-53
2024/03/11 03:36:35;;;;;;;5.38;2.10;;;;;;;;;;5070676;28;20040;-49
2024/03/11 03:39:03;;;;;;;3.88;2.00;;;;;;;;;;5070313;28;20059;-52
2024/03/11 03:41:28;;;;;;;2.95;1.88;;;;;;;;;;5070502;28;20051;-53
2024/03/11 03:43:54;;;;;;;3.65;1.80;;;;;;;;;;5070288;28;20036;-52
2024/03/11 03:46:20;;;;;;;3.85;1.75;;;;;;;;;;5070284;28;20119;-55
2024/03/11 03:48:48;;;;;;;4.28;2.17;;;;;;;;;;5070368;28;20108;-50
2024/03/11 03:51:14;;;;;;;4.07;2.28;;;;;;;;;;5069088;28;20043;-53
2024/03/11 03:53:39;;;;;;;4.15;2.13;;;;;;;;;;5070371;28;20037;-55
2024/03/11 03:56:05;;;;;;;4.10;2.50;;;;;;;;;;5070433;28;20460;-56
2024/03/11 03:58:30;;;;;;;4.07;2.28;;;;;;;;;;5069932;28;20041;-59
2024/03/11 04:00:56;;;;;;;3.72;2.10;;;;;;;;;;5069303;28;20036;-58
2024/03/11 04:03:23;;;;;;;3.58;1.90;;;;;;;;;;5069444;28;20115;-57
2024/03/11 04:05:48;;;;;;;3.65;2.17;;;;;;;;;;5060582;28;20085;-57
2024/03/11 04:08:17;;;;;;;3.70;2.17;;;;;;;;;;5070036;28;20048;-59
2024/03/11 04:10:43;;;;;;;3.65;2.10;;;;;;;;;;5070291;28;20024;-59
2024/03/11 04:13:09;;;;;;;3.65;2.15;;;;;;;;;;5070509;28;20041;-58
2024/03/11 04:15:40;;;;;;;4.32;2.38;;;;;;;;;;5070001;28;20198;-58
2024/03/11 04:18:05;;;;;;;5.05;2.47;;;;;;;;;;5069346;28;20035;-55
2024/03/11 04:20:31;;;;;;;4.20;2.67;;;;;;;;;;5069761;28;20123;-58
2024/03/11 04:22:58;;;;;;;3.83;2.10;;;;;;;;;;5070127;28;20072;-58
2024/03/11 04:25:26;;;;;;;4.63;2.38;;;;;;;;;;5069140;28;20369;-57
2024/03/11 04:27:53;;;;;;;5.07;2.60;;;;;;;;;;5070355;28;20159;-56
2024/03/11 04:30:19;;;;;;;4.30;2.30;;;;;;;;;;5069913;28;20028;-59
2024/03/11 04:32:52;;;;;;;4.88;2.50;;;;;;;;;;5069441;28;20101;-58
2024/03/11 04:35:24;;;;;;;4.15;2.15;;;;;;;;;;5068370;28;20666;-58
2024/03/11 04:37:58;;;;;;;5.65;2.40;;;;;;;;;;5069993;28;20094;-59
2024/03/11 04:40:27;;;;;;;3.92;2.50;;;;;;;;;;5069823;28;20040;-57
2024/03/11 04:42:54;;;;;;;4.20;2.13;;;;;;;;;;5070117;28;20072;-56
2024/03/11 04:45:19;;;;;;;3.50;2.10;;;;;;;;;;5070038;28;20111;-58
2024/03/11 04:47:45;;;;;;;4.45;2.65;;;;;;;;;;5069547;28;20112;-59
2024/03/11 04:50:12;;;;;;;3.60;2.28;;;;;;;;;;5069227;28;20044;-58
2024/03/11 04:52:38;;;;;;;4.50;2.40;;;;;;;;;;5069902;28;20044;-58
2024/03/11 04:55:03;;;;;;;3.90;2.42;;;;;;;;;;5069726;28;20048;-60
2024/03/11 04:57:29;;;;;;;4.28;2.20;;;;;;;;;;5067412;28;20040;-57
2024/03/11 04:59:54;;;;;;;3.95;2.40;;;;;;;;;;5069602;28;20047;-58
2024/03/11 05:02:20;;;;;;;4.32;2.30;;;;;;;;;;5071451;28;20094;-59
2024/03/11 05:04:47;;;;;;;4.53;2.55;;;;;;;;;;5073011;28;20111;-58
2024/03/11 05:07:12;;;;;;;5.18;2.28;;;;;;;;;;5073299;28;20085;-52
2024/03/11 05:09:37;;;;;;;4.30;2.50;;;;;;;;;;5073743;28;20072;-51
2024/03/11 05:12:03;;;;;;;4.53;2.67;;;;;;;;;;5073002;28;20071;-51
2024/03/11 05:14:28;;;;;;;4.25;2.65;;;;;;;;;;5073494;28;20040;-52
2024/03/11 05:16:56;;;;;;;4.63;2.60;;;;;;;;;;5073194;28;20029;-49
2024/03/11 05:19:22;;;;;;;5.47;2.60;;;;;;;;;;5072096;28;21305;-52
2024/03/11 05:21:47;;;;;;;5.50;2.70;;;;;;;;;;5073147;28;20044;-50
2024/03/11 05:24:12;;;;;;;4.45;2.30;;;;;;;;;;5073065;28;20032;-53
2024/03/11 05:26:38;;;;;;;3.83;2.40;;;;;;;;;;5073284;28;20032;-52
2024/03/11 05:29:03;;;;;;;4.07;2.35;;;;;;;;;;5073054;28;20048;-48
2024/03/11 05:31:28;;;;;;;5.85;2.58;;;;;;;;;;5072920;28;20040;-51
2024/03/11 05:33:54;;;;;;;4.82;2.90;;;;;;;;;;5072850;28;20048;-49
2024/03/11 05:36:20;;;;;;;4.22;2.50;;;;;;;;;;5072299;28;20428;-48
2024/03/11 05:38:45;;;;;;;4.20;2.53;;;;;;;;;;5073046;28;20493;-50
2024/03/11 05:41:10;;;;;;;4.85;2.55;;;;;;;;;;5072969;28;20090;-50
2024/03/11 05:43:36;;;;;;;6.93;2.55;;;;;;;;;;5072821;28;20040;-52
2024/03/11 05:46:01;;;;;;;4.05;2.53;;;;;;;;;;5072462;28;20066;-49
2024/03/11 05:48:26;;;;;;;4.00;2.40;;;;;;;;;;5072649;28;20037;-50
2024/03/11 05:51:01;;;;;;;4.55;2.58;;;;;;;;;;5072015;28;20480;-51
2024/03/11 05:53:28;;;;;;;4.20;2.22;;;;;;;;;;5072733;28;20056;-49
2024/03/11 05:55:54;;;;;;;3.95;2.50;;;;;;;;;;5072495;28;20891;-50
2024/03/11 05:58:20;;;;;;;6.55;2.95;;;;;;;;;;5071943;28;20028;-53
2024/03/11 06:00:46;;;;;;;5.13;2.83;;;;;;;;;;5054315;28;20032;-53
2024/03/11 06:03:12;;;;;;;5.22;2.88;;;;;;;;;;5072458;28;20040;-50
2024/03/11 06:05:38;;;;;;;3.80;2.55;;;;;;;;;;5071816;28;20115;-52
2024/03/11 06:08:04;;;;;;;4.82;2.67;;;;;;;;;;5072322;28;20123;-50
2024/03/11 06:10:29;;;;;;;4.80;2.40;;;;;;;;;;5054415;28;20123;-50
2024/03/11 06:12:54;;;;;;;5.00;2.63;;;;;;;;;;5072058;28;20029;-54
2024/03/11 06:15:21;;;;;;;4.10;2.67;;;;;;;;;;5071564;28;20029;-50
2024/03/11 06:17:47;;;;;;;4.50;2.20;;;;;;;;;;5066352;28;20146;-51
2024/03/11 06:20:13;;;;;;;4.25;2.65;;;;;;;;;;5071980;28;20075;-51
2024/03/11 06:22:39;;;;;;;5.32;3.03;;;;;;;;;;5053941;28;20066;-50
2024/03/11 06:25:05;;;;;;;4.72;2.70;;;;;;;;;;5072351;28;20697;-50
2024/03/11 06:27:30;;;;;;;4.07;2.35;;;;;;;;;;5071962;28;20361;-49
2024/03/11 06:29:58;;;;;;;4.25;2.67;;;;;;;;;;5071625;28;20071;-51
2024/03/11 06:32:30;;;;;;;4.63;2.58;;;;;;;;;;5071467;28;20040;-52
2024/03/11 06:34:55;;;;;;;4.60;2.45;;;;;;;;;;5070217;28;20028;-49
2024/03/11 06:37:21;;;;;;;3.40;2.40;;;;;;;;;;5071488;28;20094;-50
2024/03/11 06:39:46;;;;;;;4.75;2.42;;;;;;;;;;5071800;28;20036;-54
2024/03/11 06:42:11;;;;;;;4.85;2.58;;;;;;;;;;5071891;28;20032;-52
2024/03/11 06:44:37;;;;;;;4.18;2.60;;;;;;;;;;5071749;28;20044;-49
2024/03/11 06:47:04;;;;;;;4.43;2.42;;;;;;;;;;5071190;28;20082;-49
2024/03/11 06:49:31;;;;;;;4.82;2.95;;;;;;;;;;5066612;28;20078;-51
2024/03/11 06:51:57;;;;;;;4.68;2.65;;;;;;;;;;5071626;28;20093;-50
2024/03/11 06:54:22;;;;;;;4.47;2.50;;;;;;;;;;5071385;28;20029;-53
2024/03/11 06:56:47;;;;;;;5.70;2.70;;;;;;;;;;5071625;28;20028;-49
2024/03/11 06:59:13;;;;;;;4.40;2.63;;;;;;;;;;5070879;28;20121;-51
2024/03/11 07:01:39;;;;;;;3.90;2.47;;;;;;;;;;5070183;28;20040;-53
2024/03/11 07:04:04;;;;;;;5.40;2.90;;;;;;;;;;5071492;28;20502;-48
2024/03/11 07:06:30;;;;;;;4.50;2.53;;;;;;;;;;5070962;28;20048;-57
2024/03/11 07:08:55;;;;;;;4.75;2.70;;;;;;;;;;5070776;28;20052;-59
2024/03/11 07:11:21;;;;;;;4.43;2.42;;;;;;;;;;5071221;28;20032;-59
2024/03/11 07:13:47;;;;;;;4.63;2.53;;;;;;;;;;5055204;28;20036;-59
2024/03/11 07:16:13;;;;;;;4.22;2.53;;;;;;;;;;5070517;28;20032;-58
2024/03/11 07:18:41;;;;;;;4.45;2.58;;;;;;;;;;5070864;28;20098;-57
2024/03/11 07:21:07;;;;;;;4.95;2.67;;;;;;;;;;5071046;28;20032;-53
2024/03/11 07:23:33;;;;;;;4.90;2.63;;;;;;;;;;5070512;28;20082;-52
2024/03/11 07:25:59;;;;;;;4.05;2.47;;;;;;;;;;5070207;28;20028;-51
2024/03/11 07:28:26;;;;;;;5.15;2.83;;;;;;;;;;5070933;28;20127;-54
2024/03/11 07:30:55;;;;;;;5.03;2.90;;;;;;;;;;5070075;28;20387;-54
2024/03/11 07:33:22;;;;;;;4.53;2.50;;;;;;;;;;5070288;28;20085;-52
2024/03/11 07:35:49;;;;;;;4.03;2.47;;;;;;;;;;5070846;28;20040;-52
2024/03/11 07:38:15;;;;;;;3.90;2.38;;;;;;;;;;5070588;28;20036;-51
2024/03/11 07:40:40;;;;;;;3.90;2.35;;;;;;;;;;5070493;28;20507;-51
2024/03/11 07:43:06;;;;;;;4.28;2.45;;;;;;;;;;5070686;28;20050;-52
2024/03/11 07:45:33;;;;;;;4.18;2.40;;;;;;;;;;5069787;28;20032;-52
2024/03/11 07:47:58;;;;;;;4.95;2.50;;;;;;;;;;5070292;28;20036;-52
2024/03/11 07:50:24;;;;;;;4.13;2.30;;;;;;;;;;5070681;28;20075;-52
2024/03/11 07:52:50;;;;;;;4.10;2.22;;;;;;;;;;5070321;28;20068;-54
2024/03/11 07:55:17;;;;;;;4.50;2.50;;;;;;;;;;5070514;28;20395;-51
2024/03/11 07:57:45;;;;;;;4.05;2.35;;;;;;;;;;5062903;28;20044;-52
2024/03/11 08:00:18;;;;;;;4.45;2.53;;;;;;;;;;5069848;28;20086;-60
2024/03/11 08:02:50;;;;;;;3.57;2.30;;;;;;;;;;5066352;28;20032;-59
2024/03/11 08:05:17;;;;;;;4.45;2.08;;;;;;;;;;5062337;28;20277;-58
2024/03/11 08:07:44;;;;;;;5.65;3.05;;;;;;;;;;5068480;28;20024;-60
2024/03/11 08:10:11;;;;;;;4.57;2.50;;;;;;;;;;5069084;28;20051;-60
2024/03/11 08:12:36;;;;;;;3.95;2.47;;;;;;;;;;5068770;28;20443;-60
2024/03/11 08:15:04;;;;;;;3.88;2.30;;;;;;;;;;5068436;28;20029;-59
2024/03/11 08:17:30;;;;;;;5.25;2.30;;;;;;;;;;5069100;28;20052;-54
2024/03/11 08:19:55;;;;;;;3.88;2.30;;;;;;;;;;5069857;28;20102;-50
2024/03/11 08:22:20;;;;;;;4.70;2.40;;;;;;;;;;5069870;28;20093;-51
2024/03/11 08:24:47;;;;;;;4.88;2.63;;;;;;;;;;5070153;28;20615;-53
2024/03/11 08:27:15;;;;;;;3.58;2.05;;;;;;;;;;5069016;28;20036;-58
2024/03/11 08:29:41;;;;;;;3.80;2.50;;;;;;;;;;5069402;28;20094;-58
2024/03/11 08:32:06;;;;;;;13.73;2.70;;;;;;;;;;5070051;28;20036;-60
2024/03/11 08:34:32;;;;;;;4.82;2.47;;;;;;;;;;5069968;28;20041;-58
2024/03/11 08:36:57;;;;;;;3.95;2.38;;;;;;;;;;5071088;28;20060;-56
2024/03/11 08:39:24;;;;;;;6.13;2.70;;;;;;;;;;5073533;28;20441;-52
2024/03/11 08:41:53;;;;;;;4.93;2.22;;;;;;;;;;5073167;28;20075;-53
2024/03/11 08:44:19;;;;;;;4.55;2.78;;;;;;;;;;5073689;28;20463;-50
2024/03/11 08:46:44;;;;;;;4.53;2.20;;;;;;;;;;5073441;28;20064;-50
2024/03/11 08:49:12;;;;;;;4.70;2.42;;;;;;;;;;5069203;28;20105;-50
2024/03/11 08:51:40;;;;;;;4.95;2.50;;;;;;;;;;5064389;28;20039;-58
2024/03/11 08:54:06;;;;;;;4.45;2.05;;;;;;;;;;5069692;28;20049;-58
2024/03/11 08:56:31;;;;;;;5.30;2.38;;;;;;;;;;5075846;28;20041;-58
2024/03/11 08:58:57;;;;;;;5.47;2.20;;;;;;;;;;5071324;28;20025;-59
2024/03/11 09:01:22;;;;;;;4.70;2.38;;;;;;;;;;5073821;28;20051;-57
2024/03/11 09:03:49;;;;;;;7.82;2.40;;;;;;;;;;5073044;28;20037;-50
2024/03/11 09:06:15;;;;;;;4.90;2.50;;;;;;;;;;5072011;28;20570;-54
2024/03/11 09:08:41;;;;;;;4.63;2.65;;;;;;;;;;5073539;28;20044;-49
2024/03/11 09:11:06;;;;;;;5.55;2.38;;;;;;;;;;5072857;28;20064;-49
2024/03/11 09:13:32;;;;;;;5.95;2.20;;;;;;;;;;5073284;28;20037;-54
2024/03/11 09:15:57;;;;;;;4.35;2.35;;;;;;;;;;5072362;28;20055;-52
2024/03/11 09:18:22;;;;;;;3.88;2.40;;;;;;;;;;5073021;28;20049;-58
2024/03/11 09:20:49;;;;;;;9.75;2.70;;;;;;;;;;5072666;28;20510;-59
2024/03/11 09:23:14;;;;;;;4.93;2.53;;;;;;;;;;5071593;28;20103;-58
2024/03/11 09:25:40;;;;;;;4.70;2.20;;;;;;;;;;5046386;28;20064;-60
2024/03/11 09:28:08;;;;;;;6.15;2.20;;;;;;;;;;5071595;28;20468;-58
2024/03/11 09:30:37;;;;;;;3.97;2.17;;;;;;;;;;5071845;28;20047;-53
2024/03/11 09:33:03;;;;;;;3.85;2.03;;;;;;;;;;5072887;28;20028;-52
2024/03/11 09:35:29;;;;;;;3.95;2.00;;;;;;;;;;5072706;28;20082;-53
2024/03/11 09:37:55;;;;;;;3.92;2.30;;;;;;;;;;5072121;28;20044;-53
2024/03/11 09:40:26;;;;;;;4.15;2.50;;;;;;;;;;5072981;28;20040;-52
2024/03/11 09:42:54;;;;;;;3.72;2.35;;;;;;;;;;5072617;28;20468;-50
2024/03/11 09:45:22;;;;;;;4.40;2.40;;;;;;;;;;5072822;28;20056;-50
2024/03/11 09:47:52;;;;;;;5.55;2.47;;;;;;;;;;5071946;28;20075;-50
2024/03/11 09:50:26;;;;;;;5.10;2.40;;;;;;;;;;5071973;28;20032;-53
2024/03/11 09:52:55;;;;;;;3.90;2.30;;;;;;;;;;5072332;28;20032;-53
2024/03/11 09:55:20;;;;;;;4.60;2.17;;;;;;;;;;5069174;28;20024;-61
2024/03/11 09:57:45;;;;;;;3.35;2.20;;;;;;;;;;5072027;28;20059;-60
2024/03/11 10:00:14;;;;;;;3.42;1.75;;;;;;;;;;5065310;28;20041;-59
2024/03/11 10:02:42;;;;;;;4.40;2.40;;;;;;;;;;5052941;28;20060;-60
2024/03/11 10:05:08;;;;;;;3.78;2.17;;;;;;;;;;5069139;28;20497;-60
2024/03/11 10:07:33;;;;;;;5.53;2.22;;;;;;;;;;5071470;28;20064;-59
2024/03/11 10:09:59;;;;;;;3.78;2.25;;;;;;;;;;5069672;28;20464;-61
2024/03/11 10:12:25;;;;;;;3.53;2.15;;;;;;;;;;5071546;28;20446;-61
2024/03/11 10:14:52;;;;;;;5.93;2.60;;;;;;;;;;5070788;28;20044;-61
2024/03/11 10:17:34;;;;;;;7.80;2.03;;;;;;;;;;5070507;28;20090;-61
2024/03/11 10:19:59;;;;;;;2.90;1.80;;;;;;;;;;5070762;28;20048;-60
2024/03/11 10:22:26;;;;;;;4.60;2.30;;;;;;;;;;5069945;28;20101;-60
2024/03/11 10:24:54;;;;;;;4.25;2.28;;;;;;;;;;5070546;28;20048;-61
2024/03/11 10:27:21;;;;;;;4.25;2.20;;;;;;;;;;5071312;28;20024;-60
2024/03/11 10:29:47;;;;;;;3.53;1.98;;;;;;;;;;5071024;28;20106;-58
2024/03/11 10:32:31;;;;;;;4.53;2.20;;;;;;;;;;5070847;28;20041;-61
2024/03/11 10:34:57;;;;;;;4.20;1.98;;;;;;;;;;5067036;28;20116;-60
2024/03/11 10:37:22;;;;;;;3.90;2.15;;;;;;;;;;5070771;28;20119;-60
2024/03/11 10:39:48;;;;;;;4.65;2.30;;;;;;;;;;5070628;28;20103;-60
2024/03/11 10:42:28;;;;;;;3.35;2.00;;;;;;;;;;5067855;28;20028;-61
2024/03/11 10:44:54;;;;;;;3.70;2.20;;;;;;;;;;5070846;28;20088;-59
2024/03/11 10:47:21;;;;;;;3.10;1.63;;;;;;;;;;5070336;28;20037;-59
2024/03/11 10:49:55;;;;;;;3.50;2.10;;;;;;;;;;5070553;28;20044;-60
2024/03/11 10:52:22;;;;;;;3.28;1.90;;;;;;;;;;5070505;28;20682;-58
2024/03/11 10:54:50;;;;;;;3.03;1.90;;;;;;;;;;5070832;28;20086;-60
2024/03/11 10:57:27;;;;;;;3.90;2.10;;;;;;;;;;5069800;28;20021;-60
2024/03/11 10:59:53;;;;;;;4.07;2.15;;;;;;;;;;5069172;28;20040;-60
2024/03/11 11:02:22;;;;;;;2.85;1.80;;;;;;;;;;5052927;28;20082;-60
2024/03/11 11:04:53;;;;;;;3.50;2.15;;;;;;;;;;5070180;28;20478;-59
2024/03/11 11:07:30;;;;;;;2.88;1.90;;;;;;;;;;5069524;28;20032;-59
2024/03/11 11:10:00;;;;;;;3.25;2.10;;;;;;;;;;5070369;28;20032;-59
2024/03/11 11:12:29;;;;;;;3.47;1.88;;;;;;;;;;5069529;28;20499;-61
2024/03/11 11:14:54;;;;;;;3.25;1.90;;;;;;;;;;5052806;28;20139;-60
2024/03/11 11:17:23;;;;;;;2.95;2.00;;;;;;;;;;5068372;28;20486;-61
2024/03/11 11:19:52;;;;;;;3.40;1.95;;;;;;;;;;5052235;28;20074;-60
2024/03/11 11:22:17;;;;;;;4.25;2.20;;;;;;;;;;5070294;28;20036;-59
2024/03/11 11:24:43;;;;;;;3.20;1.90;;;;;;;;;;5070066;28;20499;-56
2024/03/11 11:27:14;;;;;;;3.38;2.08;;;;;;;;;;5069649;28;20041;-59
2024/03/11 11:29:42;;;;;;;3.97;2.20;;;;;;;;;;5055198;28;20093;-60
2024/03/11 11:32:11;;;;;;;4.05;2.20;;;;;;;;;;5069630;28;20044;-60
2024/03/11 11:34:45;;;;;;;2.83;1.75;;;;;;;;;;5069753;28;20041;-59
2024/03/11 11:37:19;;;;;;;3.88;2.20;;;;;;;;;;5060018;28;20507;-60
2024/03/11 11:39:45;;;;;;;3.85;2.00;;;;;;;;;;5070132;28;20047;-55
2024/03/11 11:42:33;;;;;;;3.38;1.88;;;;;;;;;;5068224;28;20059;-60
2024/03/11 11:44:59;;;;;;;4.00;1.92;;;;;;;;;;5066110;28;20101;-61
2024/03/11 11:47:25;;;;;;;3.95;2.00;;;;;;;;;;5067384;28;20032;-58
2024/03/11 11:49:50;;;;;;;3.25;1.83;;;;;;;;;;5068278;28;20040;-60
2024/03/11 11:52:18;;;;;;;3.72;1.73;;;;;;;;;;5048197;28;20208;-59
2024/03/11 11:54:44;;;;;;;2.95;1.90;;;;;;;;;;5066055;28;20036;-58
2024/03/11 11:57:13;;;;;;;2.75;1.60;;;;;;;;;;5062690;28;20072;-60
2024/03/11 11:59:59;;;;;;;3.67;1.92;;;;;;;;;;5062379;28;20124;-56
2024/03/11 12:02:28;;;;;;;3.10;1.73;;;;;;;;;;5066074;28;20024;-56
2024/03/11 12:04:55;;;;;;;2.80;1.75;;;;;;;;;;5065941;28;20036;-58
2024/03/11 12:07:25;;;;;;;3.40;1.98;;;;;;;;;;5065430;28;20052;-59
2024/03/11 12:10:03;;;;;;;4.07;2.10;;;;;;;;;;5066319;28;20109;-58
2024/03/11 12:12:43;;;;;;;3.20;1.70;;;;;;;;;;5066603;28;20132;-59
2024/03/11 12:15:19;;;;;;;2.95;1.92;;;;;;;;;;5065187;28;20043;-57
2024/03/11 12:17:48;;;;;;;4.25;1.73;;;;;;;;;;5065665;28;20048;-58
2024/03/11 12:22:39;;;;;;;3.10;1.88;;;;;;;;;;5065494;28;20048;-58
2024/03/11 12:25:06;;;;;;;3.13;1.70;;;;;;;;;;5065077;28;20044;-60
2024/03/11 12:27:34;;;;;;;3.95;1.83;;;;;;;;;;5065704;28;20036;-58
2024/03/11 12:30:03;;;;;;;4.03;2.00;;;;;;;;;;5064515;28;20090;-59
2024/03/11 12:32:30;;;;;;;3.03;1.75;;;;;;;;;;5065869;28;20045;-59
2024/03/11 12:34:58;;;;;;;3.70;1.80;;;;;;;;;;5065537;28;20116;-58
2024/03/11 12:37:23;;;;;;;4.07;1.98;;;;;;;;;;5047120;28;20451;-58
2024/03/11 12:39:49;;;;;;;3.45;1.90;;;;;;;;;;5065223;28;20068;-58
2024/03/11 12:42:28;;;;;;;2.80;1.75;;;;;;;;;;5065148;28;20078;-59
2024/03/11 12:44:54;;;;;;;3.60;1.98;;;;;;;;;;5065148;28;20503;-58
2024/03/11 12:47:20;;;;;;;3.13;1.70;;;;;;;;;;5062823;28;20043;-57
2024/03/11 12:49:46;;;;;;;3.42;1.85;;;;;;;;;;5064228;28;20496;-57
2024/03/11 12:52:14;;;;;;;3.35;1.60;;;;;;;;;;5043775;28;20047;-59
2024/03/11 12:54:39;;;;;;;3.80;2.00;;;;;;;;;;5065186;28;20069;-58
2024/03/11 12:57:10;;;;;;;2.83;1.65;;;;;;;;;;5045979;28;20444;-59
2024/03/11 12:59:40;;;;;;;3.15;1.73;;;;;;;;;;5064171;28;20032;-58
2024/03/11 13:02:16;;;;;;;4.18;1.73;;;;;;;;;;5060775;28;20494;-59
2024/03/11 13:04:47;;;;;;;3.40;1.88;;;;;;;;;;5065236;28;20036;-58
2024/03/11 13:07:14;;;;;;;3.63;2.05;;;;;;;;;;5052940;28;20024;-57
2024/03/11 13:09:40;;;;;;;4.30;1.90;;;;;;;;;;5063719;28;20479;-60
2024/03/11 13:12:16;;;;;;;3.78;1.90;;;;;;;;;;5058059;28;20090;-57
2024/03/11 13:14:44;;;;;;;3.05;1.77;;;;;;;;;;5062900;28;20040;-57
2024/03/11 13:17:10;;;;;;;3.03;1.83;;;;;;;;;;5050129;28;20773;-56
2024/03/11 13:19:35;;;;;;;2.80;1.70;;;;;;;;;;5063732;28;20057;-59
2024/03/11 13:22:17;;;;;;;3.13;2.00;;;;;;;;;;5052635;28;20044;-58
2024/03/11 13:24:45;;;;;;;2.88;1.92;;;;;;;;;;5063188;28;20047;-58
2024/03/11 13:27:13;;;;;;;3.95;1.77;;;;;;;;;;5067863;28;20419;-59
2024/03/11 13:29:39;;;;;;;2.78;1.77;;;;;;;;;;5067732;28;20043;-58
2024/03/11 13:32:07;;;;;;;3.95;1.80;;;;;;;;;;5062887;28;20415;-59
2024/03/11 13:34:34;;;;;;;2.95;1.70;;;;;;;;;;5067682;28;20412;-58
2024/03/11 13:36:59;;;;;;;3.10;1.70;;;;;;;;;;5068396;28;20391;-57
2024/03/11 13:39:34;;;;;;;3.20;1.90;;;;;;;;;;5066814;28;20036;-58
2024/03/11 13:42:03;;;;;;;2.80;1.70;;;;;;;;;;5048118;28;20045;-61
2024/03/11 13:44:28;;;;;;;4.28;1.90;;;;;;;;;;5062932;28;20044;-60
2024/03/11 13:46:54;;;;;;;3.28;1.73;;;;;;;;;;5067734;28;20035;-58
2024/03/11 13:49:24;;;;;;;3.42;2.05;;;;;;;;;;5070488;28;20039;-61
2024/03/11 13:51:49;;;;;;;2.65;1.70;;;;;;;;;;5067970;28;20040;-60
2024/03/11 13:54:15;;;;;;;3.17;1.98;;;;;;;;;;5066819;28;20036;-59
2024/03/11 13:56:40;;;;;;;3.28;1.75;;;;;;;;;;5065587;28;20036;-59
2024/03/11 13:59:06;;;;;;;3.13;1.80;;;;;;;;;;5067067;28;20036;-61
2024/03/11 14:01:31;;;;;;;3.67;2.03;;;;;;;;;;5064815;28;20036;-57
2024/03/11 14:03:56;;;;;;;3.20;2.00;;;;;;;;;;5067321;28;20045;-59
2024/03/11 14:06:22;;;;;;;2.47;1.48;;;;;;;;;;5067077;28;20646;-60
2024/03/11 14:08:48;;;;;;;2.92;1.63;;;;;;;;;;5072206;28;20035;-59
2024/03/11 14:11:14;;;;;;;3.10;1.83;;;;;;;;;;5065767;28;20821;-58
2024/03/11 14:13:41;;;;;;;4.45;1.95;;;;;;;;;;5069846;28;20072;-59
2024/03/11 14:16:07;;;;;;;3.75;1.92;;;;;;;;;;5068094;28;20379;-61
2024/03/11 14:18:33;;;;;;;2.67;1.80;;;;;;;;;;5067379;28;20033;-60
2024/03/11 14:20:59;;;;;;;4.00;2.00;;;;;;;;;;5066404;28;20052;-60
2024/03/11 14:23:24;;;;;;;2.53;1.58;;;;;;;;;;5064370;28;20282;-58
2024/03/11 14:25:52;;;;;;;3.40;2.00;;;;;;;;;;5067126;28;20029;-57
2024/03/11 14:28:17;;;;;;;2.80;1.80;;;;;;;;;;5067538;28;20411;-60
2024/03/11 14:30:43;;;;;;;3.50;1.75;;;;;;;;;;5067992;28;20032;-57
2024/03/11 14:33:09;;;;;;;3.42;1.52;;;;;;;;;;5066818;28;20258;-58
2024/03/11 14:35:35;;;;;;;3.42;1.70;;;;;;;;;;5047803;28;20132;-60
2024/03/11 14:38:00;;;;;;;2.80;1.77;;;;;;;;;;5067270;28;20032;-58
2024/03/11 14:40:29;;;;;;;3.92;1.80;;;;;;;;;;5067768;28;20048;-61
2024/03/11 14:43:04;;;;;;;2.78;1.60;;;;;;;;;;5067050;28;20497;-59
2024/03/11 14:45:30;;;;;;;2.78;1.52;;;;;;;;;;5066399;28;20040;-60